« Back
NWS Peachtree City, Ga » Text Product » ATL Terminal Aerodrome Forecast


Printer-friendly Version
Current Version              Previous Versions:   1  2  3  4  5  6  7  8  9  

Terminal Aerodrome Forecast

825
FTUS42 KFFC 070141 AAA
TAFATL
TAF AMD
KATL 070141Z 0702/0806 02006KT P6SM FEW080 SCT250
     FM070300 35007KT P6SM SCT250
     FM071500 32011G17KT P6SM FEW250
     FM080000 29006KT P6SM SCT250=

USA.gov is the U.S. government's official web portal to all federal, state and local government web resources and services.